sensor_id;sensor_type;location;lat;lon;timestamp;P1;durP1;ratioP1;P2;durP2;ratioP2
21546;SDS011;41275;51.912;4.388;2023-03-15T00:02:25;4.17;;;0.80;;
21546;SDS011;41275;51.912;4.388;2023-03-15T00:07:46;3.38;;;0.70;;
21546;SDS011;41275;51.912;4.388;2023-03-15T00:13:08;2.65;;;0.90;;
21546;SDS011;41275;51.912;4.388;2023-03-15T00:18:29;3.08;;;0.68;;
21546;SDS011;41275;51.912;4.388;2023-03-15T00:23:51;4.30;;;0.93;;
21546;SDS011;41275;51.912;4.388;2023-03-15T00:29:12;2.20;;;0.40;;
21546;SDS011;41275;51.912;4.388;2023-03-15T00:34:33;1.90;;;0.50;;
21546;SDS011;41275;51.912;4.388;2023-03-15T00:39:55;3.57;;;0.50;;
21546;SDS011;41275;51.912;4.388;2023-03-15T00:45:19;3.00;;;0.50;;
21546;SDS011;41275;51.912;4.388;2023-03-15T00:50:41;4.20;;;0.70;;
21546;SDS011;41275;51.912;4.388;2023-03-15T00:56:22;2.70;;;0.40;;
21546;SDS011;41275;51.912;4.388;2023-03-15T01:01:45;2.17;;;0.47;;
21546;SDS011;41275;51.912;4.388;2023-03-15T01:07:06;1.70;;;0.70;;
21546;SDS011;41275;51.912;4.388;2023-03-15T01:12:27;3.20;;;0.80;;
21546;SDS011;41275;51.912;4.388;2023-03-15T01:17:49;2.35;;;0.75;;
21546;SDS011;41275;51.912;4.388;2023-03-15T01:23:10;2.00;;;0.60;;
21546;SDS011;41275;51.912;4.388;2023-03-15T01:28:31;2.65;;;0.70;;
21546;SDS011;41275;51.912;4.388;2023-03-15T01:33:53;3.38;;;0.57;;
21546;SDS011;41275;51.912;4.388;2023-03-15T01:39:14;4.07;;;0.47;;
21546;SDS011;41275;51.912;4.388;2023-03-15T01:44:49;3.03;;;0.50;;
21546;SDS011;41275;51.912;4.388;2023-03-15T01:50:13;3.00;;;0.90;;
21546;SDS011;41275;51.912;4.388;2023-03-15T01:55:34;2.65;;;0.45;;
21546;SDS011;41275;51.912;4.388;2023-03-15T02:00:55;3.05;;;0.50;;
21546;SDS011;41275;51.912;4.388;2023-03-15T02:06:17;3.25;;;0.40;;
21546;SDS011;41275;51.912;4.388;2023-03-15T02:11:40;4.27;;;0.83;;
21546;SDS011;41275;51.912;4.388;2023-03-15T02:17:02;5.68;;;0.93;;
21546;SDS011;41275;51.912;4.388;2023-03-15T02:28:15;8.27;;;1.00;;
21546;SDS011;41275;51.912;4.388;2023-03-15T02:33:49;2.90;;;0.67;;
21546;SDS011;41275;51.912;4.388;2023-03-15T02:39:16;2.93;;;0.63;;
21546;SDS011;41275;51.912;4.388;2023-03-15T02:44:39;2.65;;;0.68;;
21546;SDS011;41275;51.912;4.388;2023-03-15T02:50:03;3.37;;;0.67;;
21546;SDS011;41275;51.912;4.388;2023-03-15T02:55:25;6.47;;;0.80;;
21546;SDS011;41275;51.912;4.388;2023-03-15T03:00:46;7.93;;;1.03;;
21546;SDS011;41275;51.912;4.388;2023-03-15T03:06:07;3.40;;;0.67;;
21546;SDS011;41275;51.912;4.388;2023-03-15T03:11:29;2.50;;;0.50;;
21546;SDS011;41275;51.912;4.388;2023-03-15T03:16:51;5.32;;;0.65;;
21546;SDS011;41275;51.912;4.388;2023-03-15T03:22:12;3.33;;;0.60;;
21546;SDS011;41275;51.912;4.388;2023-03-15T03:27:33;1.85;;;0.52;;
21546;SDS011;41275;51.912;4.388;2023-03-15T03:32:56;2.47;;;0.50;;
21546;SDS011;41275;51.912;4.388;2023-03-15T03:38:17;2.75;;;0.43;;
21546;SDS011;41275;51.912;4.388;2023-03-15T03:43:39;3.42;;;0.63;;
21546;SDS011;41275;51.912;4.388;2023-03-15T03:49:00;3.05;;;0.80;;
21546;SDS011;41275;51.912;4.388;2023-03-15T03:54:21;2.95;;;0.50;;
21546;SDS011;41275;51.912;4.388;2023-03-15T03:59:43;4.63;;;0.68;;
21546;SDS011;41275;51.912;4.388;2023-03-15T04:05:04;1.70;;;0.40;;
21546;SDS011;41275;51.912;4.388;2023-03-15T04:10:25;4.20;;;0.87;;
21546;SDS011;41275;51.912;4.388;2023-03-15T04:15:46;2.53;;;0.50;;
21546;SDS011;41275;51.912;4.388;2023-03-15T04:21:08;2.28;;;0.60;;
21546;SDS011;41275;51.912;4.388;2023-03-15T04:26:30;1.63;;;0.50;;
21546;SDS011;41275;51.912;4.388;2023-03-15T04:31:51;2.70;;;0.70;;
21546;SDS011;41275;51.912;4.388;2023-03-15T04:37:12;2.55;;;0.50;;
21546;SDS011;41275;51.912;4.388;2023-03-15T04:42:34;2.65;;;0.90;;
21546;SDS011;41275;51.912;4.388;2023-03-15T04:47:55;2.10;;;0.50;;
21546;SDS011;41275;51.912;4.388;2023-03-15T04:53:16;4.78;;;0.70;;
21546;SDS011;41275;51.912;4.388;2023-03-15T04:58:37;4.80;;;0.80;;
21546;SDS011;41275;51.912;4.388;2023-03-15T05:03:58;4.53;;;0.77;;
21546;SDS011;41275;51.912;4.388;2023-03-15T05:09:20;4.47;;;0.90;;
21546;SDS011;41275;51.912;4.388;2023-03-15T05:14:41;4.38;;;0.90;;
21546;SDS011;41275;51.912;4.388;2023-03-15T05:20:03;3.97;;;0.90;;
21546;SDS011;41275;51.912;4.388;2023-03-15T05:25:31;5.18;;;1.00;;
21546;SDS011;41275;51.912;4.388;2023-03-15T05:30:53;4.13;;;0.85;;
21546;SDS011;41275;51.912;4.388;2023-03-15T05:36:14;3.90;;;1.10;;
21546;SDS011;41275;51.912;4.388;2023-03-15T05:41:37;4.40;;;1.03;;
21546;SDS011;41275;51.912;4.388;2023-03-15T05:46:58;4.23;;;1.33;;
21546;SDS011;41275;51.912;4.388;2023-03-15T05:52:19;6.13;;;1.60;;
21546;SDS011;41275;51.912;4.388;2023-03-15T05:57:43;5.07;;;1.70;;
21546;SDS011;41275;51.912;4.388;2023-03-15T06:03:04;6.45;;;1.60;;
21546;SDS011;41275;51.912;4.388;2023-03-15T06:08:25;5.45;;;1.77;;
21546;SDS011;41275;51.912;4.388;2023-03-15T06:13:46;6.03;;;1.77;;
21546;SDS011;41275;51.912;4.388;2023-03-15T06:19:08;7.20;;;2.00;;
21546;SDS011;41275;51.912;4.388;2023-03-15T06:24:29;4.17;;;1.83;;
21546;SDS011;41275;51.912;4.388;2023-03-15T06:29:50;6.37;;;2.00;;
21546;SDS011;41275;51.912;4.388;2023-03-15T06:35:11;5.18;;;2.17;;
21546;SDS011;41275;51.912;4.388;2023-03-15T06:40:32;5.68;;;2.00;;
21546;SDS011;41275;51.912;4.388;2023-03-15T06:45:54;6.13;;;1.88;;
21546;SDS011;41275;51.912;4.388;2023-03-15T06:51:16;6.47;;;2.23;;
21546;SDS011;41275;51.912;4.388;2023-03-15T06:56:37;8.60;;;2.57;;
21546;SDS011;41275;51.912;4.388;2023-03-15T07:01:58;5.10;;;2.00;;
21546;SDS011;41275;51.912;4.388;2023-03-15T07:07:20;6.35;;;1.80;;
21546;SDS011;41275;51.912;4.388;2023-03-15T07:12:41;9.98;;;2.70;;
21546;SDS011;41275;51.912;4.388;2023-03-15T07:18:02;6.03;;;1.90;;
21546;SDS011;41275;51.912;4.388;2023-03-15T07:23:23;6.57;;;1.70;;
21546;SDS011;41275;51.912;4.388;2023-03-15T07:28:45;8.75;;;2.20;;
21546;SDS011;41275;51.912;4.388;2023-03-15T07:34:06;7.43;;;1.80;;
21546;SDS011;41275;51.912;4.388;2023-03-15T07:39:27;4.25;;;1.20;;
21546;SDS011;41275;51.912;4.388;2023-03-15T07:44:52;7.77;;;1.77;;
21546;SDS011;41275;51.912;4.388;2023-03-15T07:50:13;9.98;;;1.58;;
21546;SDS011;41275;51.912;4.388;2023-03-15T07:55:35;8.85;;;1.60;;
21546;SDS011;41275;51.912;4.388;2023-03-15T08:00:56;4.38;;;1.15;;
21546;SDS011;41275;51.912;4.388;2023-03-15T08:06:18;7.40;;;1.10;;
21546;SDS011;41275;51.912;4.388;2023-03-15T08:11:39;6.60;;;1.30;;
21546;SDS011;41275;51.912;4.388;2023-03-15T08:17:00;8.07;;;1.20;;
21546;SDS011;41275;51.912;4.388;2023-03-15T08:22:21;5.87;;;0.97;;
21546;SDS011;41275;51.912;4.388;2023-03-15T08:27:43;4.60;;;1.00;;
21546;SDS011;41275;51.912;4.388;2023-03-15T08:33:05;7.83;;;1.10;;
21546;SDS011;41275;51.912;4.388;2023-03-15T08:38:27;6.70;;;1.50;;
21546;SDS011;41275;51.912;4.388;2023-03-15T08:43:48;10.70;;;1.48;;
21546;SDS011;41275;51.912;4.388;2023-03-15T08:49:09;6.45;;;1.13;;
21546;SDS011;41275;51.912;4.388;2023-03-15T08:54:31;8.50;;;1.90;;
21546;SDS011;41275;51.912;4.388;2023-03-15T08:59:52;6.45;;;1.55;;
21546;SDS011;41275;51.912;4.388;2023-03-15T09:05:13;7.80;;;1.47;;
21546;SDS011;41275;51.912;4.388;2023-03-15T09:10:35;6.63;;;1.73;;
21546;SDS011;41275;51.912;4.388;2023-03-15T09:15:57;9.10;;;2.87;;
21546;SDS011;41275;51.912;4.388;2023-03-15T09:21:18;9.33;;;1.50;;
21546;SDS011;41275;51.912;4.388;2023-03-15T09:26:39;9.43;;;2.00;;
21546;SDS011;41275;51.912;4.388;2023-03-15T09:32:00;9.60;;;1.85;;
21546;SDS011;41275;51.912;4.388;2023-03-15T09:37:22;10.45;;;1.95;;
21546;SDS011;41275;51.912;4.388;2023-03-15T09:48:33;6.57;;;1.50;;
21546;SDS011;41275;51.912;4.388;2023-03-15T09:54:11;7.05;;;1.50;;
21546;SDS011;41275;51.912;4.388;2023-03-15T09:59:39;7.97;;;1.17;;
21546;SDS011;41275;51.912;4.388;2023-03-15T10:05:04;5.25;;;0.93;;
21546;SDS011;41275;51.912;4.388;2023-03-15T10:10:32;5.07;;;0.77;;
21546;SDS011;41275;51.912;4.388;2023-03-15T10:16:08;3.90;;;1.08;;
21546;SDS011;41275;51.912;4.388;2023-03-15T10:21:51;5.40;;;0.85;;
21546;SDS011;41275;51.912;4.388;2023-03-15T10:27:21;7.63;;;1.07;;
21546;SDS011;41275;51.912;4.388;2023-03-15T10:33:36;4.70;;;0.90;;
21546;SDS011;41275;51.912;4.388;2023-03-15T10:38:35;3.70;;;0.70;;
21546;SDS011;41275;51.912;4.388;2023-03-15T10:44:00;4.40;;;0.70;;
21546;SDS011;41275;51.912;4.388;2023-03-15T10:49:31;4.78;;;1.13;;
21546;SDS011;41275;51.912;4.388;2023-03-15T10:54:58;5.00;;;0.80;;
21546;SDS011;41275;51.912;4.388;2023-03-15T11:00:32;2.60;;;0.70;;
21546;SDS011;41275;51.912;4.388;2023-03-15T11:05:56;5.75;;;0.80;;
21546;SDS011;41275;51.912;4.388;2023-03-15T11:11:18;4.35;;;0.60;;
21546;SDS011;41275;51.912;4.388;2023-03-15T11:16:41;3.42;;;0.68;;
21546;SDS011;41275;51.912;4.388;2023-03-15T11:22:09;2.90;;;0.70;;
21546;SDS011;41275;51.912;4.388;2023-03-15T11:27:33;5.10;;;0.60;;
21546;SDS011;41275;51.912;4.388;2023-03-15T11:32:54;3.67;;;0.65;;
21546;SDS011;41275;51.912;4.388;2023-03-15T11:38:25;6.00;;;0.93;;
21546;SDS011;41275;51.912;4.388;2023-03-15T11:44:04;3.10;;;0.40;;
21546;SDS011;41275;51.912;4.388;2023-03-15T11:49:48;3.67;;;0.60;;
21546;SDS011;41275;51.912;4.388;2023-03-15T11:55:16;3.20;;;0.68;;
21546;SDS011;41275;51.912;4.388;2023-03-15T12:00:47;3.42;;;0.70;;
21546;SDS011;41275;51.912;4.388;2023-03-15T12:11:37;3.28;;;0.60;;
21546;SDS011;41275;51.912;4.388;2023-03-15T12:22:47;2.65;;;0.43;;
21546;SDS011;41275;51.912;4.388;2023-03-15T12:28:18;2.88;;;0.50;;
21546;SDS011;41275;51.912;4.388;2023-03-15T12:33:50;2.58;;;0.52;;
21546;SDS011;41275;51.912;4.388;2023-03-15T12:44:37;3.03;;;0.47;;
21546;SDS011;41275;51.912;4.388;2023-03-15T12:49:59;3.83;;;0.60;;
21546;SDS011;41275;51.912;4.388;2023-03-15T13:01:36;3.72;;;0.85;;
21546;SDS011;41275;51.912;4.388;2023-03-15T13:07:16;2.40;;;0.40;;
21546;SDS011;41275;51.912;4.388;2023-03-15T13:12:47;3.28;;;0.45;;
21546;SDS011;41275;51.912;4.388;2023-03-15T13:18:16;2.83;;;0.57;;
21546;SDS011;41275;51.912;4.388;2023-03-15T13:23:48;2.55;;;0.50;;
21546;SDS011;41275;51.912;4.388;2023-03-15T13:29:14;3.05;;;0.70;;
21546;SDS011;41275;51.912;4.388;2023-03-15T13:34:40;4.17;;;0.60;;
21546;SDS011;41275;51.912;4.388;2023-03-15T13:40:06;2.37;;;0.60;;
21546;SDS011;41275;51.912;4.388;2023-03-15T13:45:32;3.58;;;0.65;;
21546;SDS011;41275;51.912;4.388;2023-03-15T13:51:01;4.78;;;0.60;;
21546;SDS011;41275;51.912;4.388;2023-03-15T13:56:29;2.15;;;0.75;;
21546;SDS011;41275;51.912;4.388;2023-03-15T14:01:55;4.30;;;1.83;;
21546;SDS011;41275;51.912;4.388;2023-03-15T14:12:56;5.18;;;0.63;;
21546;SDS011;41275;51.912;4.388;2023-03-15T14:18:23;1.98;;;0.60;;
21546;SDS011;41275;51.912;4.388;2023-03-15T14:23:52;2.67;;;0.55;;
21546;SDS011;41275;51.912;4.388;2023-03-15T14:29:17;3.03;;;0.80;;
21546;SDS011;41275;51.912;4.388;2023-03-15T14:34:46;1.63;;;0.65;;
21546;SDS011;41275;51.912;4.388;2023-03-15T14:40:21;1.58;;;0.50;;
21546;SDS011;41275;51.912;4.388;2023-03-15T14:45:48;4.22;;;0.82;;
21546;SDS011;41275;51.912;4.388;2023-03-15T14:51:13;3.53;;;0.70;;
21546;SDS011;41275;51.912;4.388;2023-03-15T14:56:37;2.80;;;0.70;;
21546;SDS011;41275;51.912;4.388;2023-03-15T15:01:59;1.63;;;0.70;;
21546;SDS011;41275;51.912;4.388;2023-03-15T15:07:22;3.30;;;1.10;;
21546;SDS011;41275;51.912;4.388;2023-03-15T15:12:43;1.60;;;0.40;;
21546;SDS011;41275;51.912;4.388;2023-03-15T15:18:04;1.03;;;0.40;;
21546;SDS011;41275;51.912;4.388;2023-03-15T15:23:27;1.77;;;0.57;;
21546;SDS011;41275;51.912;4.388;2023-03-15T15:28:50;2.85;;;0.82;;
21546;SDS011;41275;51.912;4.388;2023-03-15T15:34:13;1.67;;;0.80;;
21546;SDS011;41275;51.912;4.388;2023-03-15T15:39:34;3.35;;;0.95;;
21546;SDS011;41275;51.912;4.388;2023-03-15T15:44:56;2.65;;;0.82;;
21546;SDS011;41275;51.912;4.388;2023-03-15T15:50:18;3.90;;;1.10;;
21546;SDS011;41275;51.912;4.388;2023-03-15T15:55:39;3.00;;;1.15;;
21546;SDS011;41275;51.912;4.388;2023-03-15T16:01:01;6.40;;;1.60;;
21546;SDS011;41275;51.912;4.388;2023-03-15T16:06:22;3.60;;;1.30;;
21546;SDS011;41275;51.912;4.388;2023-03-15T16:11:43;4.07;;;1.63;;
21546;SDS011;41275;51.912;4.388;2023-03-15T16:17:09;3.83;;;1.80;;
21546;SDS011;41275;51.912;4.388;2023-03-15T16:22:32;3.42;;;1.60;;
21546;SDS011;41275;51.912;4.388;2023-03-15T16:27:53;3.30;;;2.10;;
21546;SDS011;41275;51.912;4.388;2023-03-15T16:33:19;4.35;;;2.08;;
21546;SDS011;41275;51.912;4.388;2023-03-15T16:38:41;4.55;;;1.80;;
21546;SDS011;41275;51.912;4.388;2023-03-15T16:44:07;3.70;;;2.00;;
21546;SDS011;41275;51.912;4.388;2023-03-15T16:49:31;4.37;;;2.00;;
21546;SDS011;41275;51.912;4.388;2023-03-15T16:54:53;4.17;;;1.97;;
21546;SDS011;41275;51.912;4.388;2023-03-15T17:00:14;4.25;;;1.90;;
21546;SDS011;41275;51.912;4.388;2023-03-15T17:05:40;9.10;;;2.70;;
21546;SDS011;41275;51.912;4.388;2023-03-15T17:11:04;5.70;;;2.20;;
21546;SDS011;41275;51.912;4.388;2023-03-15T17:16:25;5.43;;;2.25;;
21546;SDS011;41275;51.912;4.388;2023-03-15T17:21:46;4.68;;;2.42;;
21546;SDS011;41275;51.912;4.388;2023-03-15T17:27:11;6.78;;;2.67;;
21546;SDS011;41275;51.912;4.388;2023-03-15T17:32:42;8.23;;;2.67;;
21546;SDS011;41275;51.912;4.388;2023-03-15T17:38:03;4.90;;;2.30;;
21546;SDS011;41275;51.912;4.388;2023-03-15T17:43:26;6.20;;;2.17;;
21546;SDS011;41275;51.912;4.388;2023-03-15T17:48:47;5.78;;;2.33;;
21546;SDS011;41275;51.912;4.388;2023-03-15T17:54:12;6.50;;;2.60;;
21546;SDS011;41275;51.912;4.388;2023-03-15T17:59:36;6.38;;;3.45;;
21546;SDS011;41275;51.912;4.388;2023-03-15T18:04:57;4.43;;;2.40;;
21546;SDS011;41275;51.912;4.388;2023-03-15T18:10:18;4.10;;;2.30;;
21546;SDS011;41275;51.912;4.388;2023-03-15T18:15:45;5.93;;;2.58;;
21546;SDS011;41275;51.912;4.388;2023-03-15T18:21:10;9.05;;;2.80;;
21546;SDS011;41275;51.912;4.388;2023-03-15T18:26:33;7.43;;;2.90;;
21546;SDS011;41275;51.912;4.388;2023-03-15T18:31:54;5.43;;;2.65;;
21546;SDS011;41275;51.912;4.388;2023-03-15T18:37:15;5.07;;;2.47;;
21546;SDS011;41275;51.912;4.388;2023-03-15T18:42:37;4.63;;;2.03;;
21546;SDS011;41275;51.912;4.388;2023-03-15T18:47:58;8.35;;;2.38;;
21546;SDS011;41275;51.912;4.388;2023-03-15T18:53:19;4.50;;;2.55;;
21546;SDS011;41275;51.912;4.388;2023-03-15T18:58:41;6.50;;;2.28;;
21546;SDS011;41275;51.912;4.388;2023-03-15T19:04:02;6.38;;;2.50;;
21546;SDS011;41275;51.912;4.388;2023-03-15T19:09:23;4.10;;;1.73;;
21546;SDS011;41275;51.912;4.388;2023-03-15T19:14:44;3.90;;;1.80;;
21546;SDS011;41275;51.912;4.388;2023-03-15T19:20:06;4.23;;;2.17;;
21546;SDS011;41275;51.912;4.388;2023-03-15T19:25:31;5.63;;;2.40;;
21546;SDS011;41275;51.912;4.388;2023-03-15T19:30:52;8.80;;;4.20;;
21546;SDS011;41275;51.912;4.388;2023-03-15T19:36:14;6.40;;;2.70;;
21546;SDS011;41275;51.912;4.388;2023-03-15T19:41:35;6.10;;;2.80;;
21546;SDS011;41275;51.912;4.388;2023-03-15T19:46:56;7.13;;;2.90;;
21546;SDS011;41275;51.912;4.388;2023-03-15T19:52:17;5.65;;;3.17;;
21546;SDS011;41275;51.912;4.388;2023-03-15T19:57:58;7.78;;;2.90;;
21546;SDS011;41275;51.912;4.388;2023-03-15T20:03:20;6.78;;;3.20;;
21546;SDS011;41275;51.912;4.388;2023-03-15T20:08:41;5.87;;;3.03;;
21546;SDS011;41275;51.912;4.388;2023-03-15T20:14:02;5.63;;;2.95;;
21546;SDS011;41275;51.912;4.388;2023-03-15T20:19:24;6.20;;;3.13;;
21546;SDS011;41275;51.912;4.388;2023-03-15T20:24:45;5.07;;;2.53;;
21546;SDS011;41275;51.912;4.388;2023-03-15T20:30:07;4.88;;;2.58;;
21546;SDS011;41275;51.912;4.388;2023-03-15T20:35:29;4.68;;;2.20;;
21546;SDS011;41275;51.912;4.388;2023-03-15T20:40:54;4.32;;;2.30;;
21546;SDS011;41275;51.912;4.388;2023-03-15T20:46:16;6.63;;;2.70;;
21546;SDS011;41275;51.912;4.388;2023-03-15T20:51:39;5.75;;;2.55;;
21546;SDS011;41275;51.912;4.388;2023-03-15T20:57:00;8.27;;;3.15;;
21546;SDS011;41275;51.912;4.388;2023-03-15T21:02:21;5.20;;;2.92;;
21546;SDS011;41275;51.912;4.388;2023-03-15T21:07:42;6.95;;;3.10;;
21546;SDS011;41275;51.912;4.388;2023-03-15T21:13:04;8.73;;;2.90;;
21546;SDS011;41275;51.912;4.388;2023-03-15T21:18:31;5.20;;;2.77;;
21546;SDS011;41275;51.912;4.388;2023-03-15T21:23:55;6.50;;;3.17;;
21546;SDS011;41275;51.912;4.388;2023-03-15T21:29:16;5.85;;;3.00;;
21546;SDS011;41275;51.912;4.388;2023-03-15T21:34:38;7.05;;;3.10;;
21546;SDS011;41275;51.912;4.388;2023-03-15T21:39:59;5.95;;;3.20;;
21546;SDS011;41275;51.912;4.388;2023-03-15T21:45:20;8.88;;;3.22;;
21546;SDS011;41275;51.912;4.388;2023-03-15T21:50:43;7.60;;;3.70;;
21546;SDS011;41275;51.912;4.388;2023-03-15T21:56:04;9.90;;;4.10;;
21546;SDS011;41275;51.912;4.388;2023-03-15T22:01:25;8.07;;;3.70;;
21546;SDS011;41275;51.912;4.388;2023-03-15T22:06:47;7.10;;;3.40;;
21546;SDS011;41275;51.912;4.388;2023-03-15T22:12:08;10.70;;;4.40;;
21546;SDS011;41275;51.912;4.388;2023-03-15T22:17:29;8.10;;;3.40;;
21546;SDS011;41275;51.912;4.388;2023-03-15T22:22:51;8.60;;;4.13;;
21546;SDS011;41275;51.912;4.388;2023-03-15T22:28:12;8.02;;;4.00;;
21546;SDS011;41275;51.912;4.388;2023-03-15T22:33:33;8.55;;;4.20;;
21546;SDS011;41275;51.912;4.388;2023-03-15T22:38:54;9.00;;;4.05;;
21546;SDS011;41275;51.912;4.388;2023-03-15T22:44:18;6.80;;;3.08;;
21546;SDS011;41275;51.912;4.388;2023-03-15T22:49:39;8.20;;;3.40;;
21546;SDS011;41275;51.912;4.388;2023-03-15T22:55:00;6.25;;;3.30;;
21546;SDS011;41275;51.912;4.388;2023-03-15T23:00:23;7.57;;;3.30;;
21546;SDS011;41275;51.912;4.388;2023-03-15T23:05:45;5.93;;;2.97;;
21546;SDS011;41275;51.912;4.388;2023-03-15T23:11:06;6.28;;;3.10;;
21546;SDS011;41275;51.912;4.388;2023-03-15T23:16:28;6.03;;;3.27;;
21546;SDS011;41275;51.912;4.388;2023-03-15T23:21:49;4.78;;;2.83;;
21546;SDS011;41275;51.912;4.388;2023-03-15T23:27:10;4.88;;;2.95;;
21546;SDS011;41275;51.912;4.388;2023-03-15T23:32:31;7.93;;;3.22;;
21546;SDS011;41275;51.912;4.388;2023-03-15T23:37:56;6.87;;;3.33;;
21546;SDS011;41275;51.912;4.388;2023-03-15T23:43:17;7.65;;;3.40;;
21546;SDS011;41275;51.912;4.388;2023-03-15T23:48:39;9.60;;;3.33;;
21546;SDS011;41275;51.912;4.388;2023-03-15T23:54:01;4.63;;;2.80;;
21546;SDS011;41275;51.912;4.388;2023-03-15T23:59:23;7.63;;;3.13;;
